Dati Storici

Data ora Umidita' aria (%) Temperatura aria (°C) Rad globale (W/m²) Gonioanemometro (°) Tacoanemometro (m/s) Pioggia (mm)
09-11-2012 23:50 81.5 % 9.518 3.175 238.008 0.716 0
09-11-2012 23:40 80.9 % 9.605 3.482 216.257 0.884 0
09-11-2012 23:30 81.1 % 9.593 3.342 247.099 0.549 0
09-11-2012 23:20 81.5 % 9.463 3.418 4.98 0.601 0
09-11-2012 23:10 82.3 % 9.491 3.969 231.86 0.983 0
09-11-2012 23:00 84.5 % 9.45 4.206 259.078 1.732 0
09-11-2012 22:50 86.5 % 9.4 4.36 245.831 0.854 0
09-11-2012 22:40 87.4 % 9.07 3.847 248.727 0.977 0
09-11-2012 22:30 87.3 % 8.786 3.476 214.204 0.125 0
09-11-2012 22:20 87.1 % 8.668 3.143 56.685 0.318 0
09-11-2012 22:10 87.8 % 8.815 2.81 170.114 0.281 0
09-11-2012 22:00 87.7 % 8.612 2.861 106.612 0.563 0
09-11-2012 21:50 87.7 % 8.553 2.438 242.124 0.191 0
09-11-2012 21:40 87.2 % 8.415 2.194 212.619 0.303 0
09-11-2012 21:30 86.6 % 8.337 2.437 296.322 0.003 0
09-11-2012 21:20 85.9 % 8.462 2.937 222.51 0.001 0
09-11-2012 21:10 86.4 % 8.827 3.36 64.502 0.688 0
09-11-2012 21:00 85.7 % 8.672 2.873 5.527 0.616 0
09-11-2012 20:50 84.7 % 8.58 2.743 1.23 0.236 0
09-11-2012 20:40 84.4 % 8.911 2.884 42.461 0.366 0

I dati sono presentati in modo automatico a scopo informativo. In seguito a verifica i dati possono subire modifiche o essere invalidati e non riportati negli archivi definitivi.